Terminal Aerodrome Forecast
Issued by NWS

Home | Current Version | Previous Version | Text Only | Print | Product List | Glossary On
Versions: 1 2 3 4 5 6 7 8 9 10 11 12 13 14 15 16 17 18 19 20 21 22 23 24 25 26 27 28 29 30 31 32 33 34
000
FTUS43 KDLH 101700 AAA
TAFHYR
TAF AMD
KHYR 101759Z 1018/1118 17008KT 6SM HZ FEW050 SCT060
     FM110700 17004KT P6SM VCSH SCT050 OVC100 WS020/19030KT
     FM110900 17004KT P6SM -TSRA SCT050 OVC100CB WS020/19035KT
     FM111400 19010G16KT P6SM VCSH SCT045 BKN100=

USA.gov is the U.S. government's official web portal to all federal, state and local government web resources and services.